createdAt,value
2022-09-04T00:00:34.563Z,101396.09
2022-09-04T00:03:47.797Z,101399.44
2022-09-04T00:07:07.062Z,101398.19
2022-09-04T00:10:20.464Z,101402.41
2022-09-04T00:13:27.413Z,101403.22
2022-09-04T00:16:42.977Z,101400.72
2022-09-04T00:19:53.891Z,101398.16
2022-09-04T00:23:03.946Z,101395.41
2022-09-04T00:26:15.928Z,101389.56
2022-09-04T00:29:36.348Z,101393.41
2022-09-04T00:32:46.874Z,101392.81
2022-09-04T00:35:56.349Z,101400.84
2022-09-04T00:39:08.819Z,101401.09
2022-09-04T00:42:36.134Z,101406.72
2022-09-04T00:45:59.214Z,101404.50
2022-09-04T00:49:33.000Z,101405.38
2022-09-04T00:53:02.484Z,101408.94
2022-09-04T00:56:33.658Z,101413.34
2022-09-04T00:59:58.717Z,101417.22
2022-09-04T01:03:22.131Z,101415.19
2022-09-04T01:06:37.071Z,101416.00
2022-09-04T01:09:58.411Z,101419.59
2022-09-04T01:14:00.706Z,101423.34
2022-09-04T01:17:16.005Z,101426.44
2022-09-04T01:20:31.508Z,101427.50
2022-09-04T01:24:01.040Z,101434.56
2022-09-04T01:27:10.262Z,101436.34
2022-09-04T01:30:17.598Z,101427.50
2022-09-04T01:33:30.332Z,101431.09
2022-09-04T01:36:42.722Z,101440.44
2022-09-04T01:40:17.514Z,101441.84
2022-09-04T01:43:24.130Z,101432.16
2022-09-04T01:46:43.045Z,101433.41
2022-09-04T01:49:52.143Z,101432.44
2022-09-04T01:53:05.797Z,101429.19
2022-09-04T01:56:16.321Z,101431.22
2022-09-04T01:59:29.114Z,101432.53
2022-09-04T02:02:47.836Z,101435.19
2022-09-04T02:06:06.758Z,101434.44
2022-09-04T02:09:27.315Z,101428.34
2022-09-04T02:12:38.010Z,101428.50
2022-09-04T02:15:50.276Z,101431.25
2022-09-04T02:19:04.590Z,101430.66
2022-09-04T02:22:20.763Z,101434.09
2022-09-04T02:25:32.215Z,101433.50
2022-09-04T02:28:51.232Z,101430.03
2022-09-04T02:32:05.147Z,101430.41
2022-09-04T02:35:23.109Z,101431.34
2022-09-04T02:38:34.189Z,101433.97
2022-09-04T02:41:50.902Z,101427.28
2022-09-04T02:45:10.747Z,101428.03
2022-09-04T02:48:25.513Z,101438.75
2022-09-04T02:51:54.173Z,101439.00
2022-09-04T02:55:14.058Z,101438.03
2022-09-04T02:58:31.283Z,101437.44
2022-09-04T03:01:49.184Z,101443.41
2022-09-04T03:05:03.037Z,101442.47
2022-09-04T03:08:14.352Z,101438.28
2022-09-04T03:11:23.450Z,101436.94
2022-09-04T03:14:36.229Z,101434.47
2022-09-04T03:17:48.973Z,101433.00
2022-09-04T03:20:59.381Z,101435.91
2022-09-04T03:24:09.281Z,101436.38
2022-09-04T03:27:16.398Z,101437.66
2022-09-04T03:30:20.090Z,101447.28
2022-09-04T03:33:31.506Z,101444.94
2022-09-04T03:36:44.077Z,101447.06
2022-09-04T03:40:04.403Z,101449.47
2022-09-04T03:43:45.082Z,101451.59
2022-09-04T03:47:03.003Z,101451.09
2022-09-04T03:50:18.991Z,101453.00
2022-09-04T03:53:33.869Z,101450.97
2022-09-04T03:57:00.102Z,101451.56
2022-09-04T04:00:11.900Z,101455.56
2022-09-04T04:03:48.055Z,101464.66
2022-09-04T04:07:07.830Z,101468.66
2022-09-04T04:10:31.083Z,101469.19
2022-09-04T04:14:06.828Z,101470.16
2022-09-04T04:17:35.992Z,101467.06
2022-09-04T04:20:52.424Z,101473.84
2022-09-04T04:24:27.095Z,101474.47
2022-09-04T04:27:49.176Z,101465.22
2022-09-04T04:30:54.542Z,101466.50
2022-09-04T04:34:06.794Z,101479.13
2022-09-04T04:37:18.622Z,101474.09
2022-09-04T04:40:36.057Z,101481.00
2022-09-04T04:43:55.776Z,101482.06
2022-09-04T04:47:15.959Z,101487.84
2022-09-04T04:50:27.246Z,101490.47
2022-09-04T04:53:36.814Z,101494.03
2022-09-04T04:56:47.803Z,101502.00
2022-09-04T05:00:08.347Z,101502.59
2022-09-04T05:03:22.104Z,101503.56
2022-09-04T05:06:36.552Z,101507.84
2022-09-04T05:09:49.991Z,101506.41
2022-09-04T05:13:03.585Z,101507.13
2022-09-04T05:16:19.346Z,101515.28
2022-09-04T05:19:30.944Z,101524.56
2022-09-04T05:22:40.598Z,101536.13
2022-09-04T05:25:51.904Z,101540.28
2022-09-04T05:29:02.921Z,101543.66
2022-09-04T05:32:20.842Z,101543.66
2022-09-04T05:35:35.566Z,101559.13
2022-09-04T05:38:55.152Z,101572.97
2022-09-04T05:42:16.458Z,101563.09
2022-09-04T05:45:26.256Z,101563.75
2022-09-04T05:48:39.964Z,101573.56
2022-09-04T05:52:23.333Z,101577.81
2022-09-04T05:55:45.383Z,101579.38
2022-09-04T05:59:13.036Z,101578.03
2022-09-04T06:02:47.181Z,101585.00
2022-09-04T06:06:15.095Z,101585.50
2022-09-04T06:09:34.991Z,101588.41
2022-09-04T06:13:03.006Z,101594.13
2022-09-04T06:16:26.975Z,101589.88
2022-09-04T06:19:48.919Z,101592.56
2022-09-04T06:23:08.255Z,101607.41
2022-09-04T06:26:39.961Z,101598.94
2022-09-04T06:30:03.726Z,101604.56
2022-09-04T06:33:36.896Z,101599.94
2022-09-04T06:36:57.503Z,101600.03
2022-09-04T06:40:21.641Z,101606.00
2022-09-04T06:43:37.877Z,101608.75
2022-09-04T06:46:52.146Z,101608.66
2022-09-04T06:50:17.670Z,101619.19
2022-09-04T06:53:42.423Z,101608.72
2022-09-04T06:57:06.847Z,101613.28
2022-09-04T07:00:12.575Z,101621.19
2022-09-04T07:03:31.839Z,101624.03
2022-09-04T07:06:50.782Z,101621.66
2022-09-04T07:10:01.707Z,101623.53
2022-09-04T07:13:37.945Z,101622.81
2022-09-04T07:16:47.813Z,101642.84
2022-09-04T07:20:12.789Z,101644.13
2022-09-04T07:23:30.836Z,101632.56
2022-09-04T07:26:42.559Z,101631.69
2022-09-04T07:29:54.159Z,101633.69
2022-09-04T07:33:00.938Z,101634.31
2022-09-04T07:36:10.058Z,101637.34
2022-09-04T07:39:22.197Z,101636.03
2022-09-04T07:42:32.763Z,101632.66
2022-09-04T07:45:39.922Z,101624.28
2022-09-04T07:48:48.173Z,101626.56
2022-09-04T07:51:58.605Z,101636.81
2022-09-04T07:55:24.947Z,101636.22
2022-09-04T07:58:58.494Z,101641.09
2022-09-04T08:02:22.147Z,101645.97
2022-09-04T08:05:28.999Z,101659.78
2022-09-04T08:09:10.822Z,101658.16
2022-09-04T08:12:38.402Z,101667.09
2022-09-04T08:15:46.445Z,101666.59
2022-09-04T08:19:03.408Z,101674.78
2022-09-04T08:22:07.851Z,101665.22
2022-09-04T08:25:20.746Z,101684.97
2022-09-04T08:28:46.085Z,101670.25
2022-09-04T08:32:05.475Z,101659.94
2022-09-04T08:35:21.243Z,101672.03
2022-09-04T08:38:50.422Z,101679.50
2022-09-04T08:42:45.482Z,101672.56
2022-09-04T08:46:19.402Z,101678.50
2022-09-04T08:50:11.399Z,101677.94
2022-09-04T08:53:46.179Z,101684.63
2022-09-04T08:57:18.587Z,101678.13
2022-09-04T09:00:22.977Z,101677.16
2022-09-04T09:04:08.698Z,101671.94
2022-09-04T09:07:42.520Z,101686.66
2022-09-04T09:11:32.414Z,101676.44
2022-09-04T09:15:49.667Z,101675.59
2022-09-04T09:19:22.734Z,101670.13
2022-09-04T09:23:18.409Z,101675.06
2022-09-04T09:26:29.204Z,101670.50
2022-09-04T09:30:03.338Z,101676.03
2022-09-04T09:34:02.316Z,101669.75
2022-09-04T09:37:59.108Z,101664.41
2022-09-04T09:41:47.962Z,101661.63
2022-09-04T09:45:26.023Z,101665.38
2022-09-04T09:49:14.813Z,101665.75
2022-09-04T09:52:59.595Z,101662.25
2022-09-04T09:56:32.061Z,101661.88
2022-09-04T10:00:06.845Z,101665.63
2022-09-04T10:04:11.947Z,101659.16
2022-09-04T10:07:58.835Z,101667.13
2022-09-04T10:11:44.240Z,101670.28
2022-09-04T10:15:33.411Z,101667.28
2022-09-04T10:19:18.661Z,101665.16
2022-09-04T10:23:00.575Z,101660.84
2022-09-04T10:26:57.614Z,101666.28
2022-09-04T10:30:07.765Z,101672.59
2022-09-04T10:33:33.871Z,101665.16
2022-09-04T10:36:48.573Z,101667.84
2022-09-04T10:40:28.222Z,101665.75
2022-09-04T10:43:51.835Z,101672.16
2022-09-04T10:47:10.620Z,101681.75
2022-09-04T10:50:28.618Z,101679.06
2022-09-04T10:54:22.440Z,101679.22
2022-09-04T10:57:52.165Z,101680.50
2022-09-04T11:01:29.684Z,101686.31
2022-09-04T11:05:15.640Z,101681.00
2022-09-04T11:08:55.955Z,101674.19
2022-09-04T11:12:41.018Z,101676.63
2022-09-04T11:16:16.354Z,101681.50
2022-09-04T11:20:30.481Z,101676.72
2022-09-04T11:24:06.065Z,101677.38
2022-09-04T11:27:34.119Z,101670.91
2022-09-04T11:31:02.075Z,101674.25
2022-09-04T11:34:54.089Z,101672.53
2022-09-04T11:38:18.390Z,101674.53
2022-09-04T11:41:59.386Z,101661.56
2022-09-04T11:45:44.547Z,101655.50
2022-09-04T11:49:14.521Z,101659.16
2022-09-04T11:52:28.515Z,101664.44
2022-09-04T11:55:53.316Z,101652.53
2022-09-04T11:59:25.439Z,101649.31
2022-09-04T12:03:06.503Z,101648.78
2022-09-04T12:06:36.426Z,101645.97
2022-09-04T12:10:01.031Z,101645.75
2022-09-04T12:13:33.637Z,101640.13
2022-09-04T12:17:30.022Z,101636.13
2022-09-04T12:21:12.245Z,101644.53
2022-09-04T12:24:43.470Z,101640.56
2022-09-04T12:28:21.036Z,101640.09
2022-09-04T12:31:51.318Z,101642.53
2022-09-04T12:35:33.696Z,101639.81
2022-09-04T12:39:20.440Z,101637.31
2022-09-04T12:42:30.023Z,101640.47
2022-09-04T12:45:44.692Z,101636.66
2022-09-04T12:49:01.175Z,101644.50
2022-09-04T12:52:19.176Z,101637.03
2022-09-04T12:55:36.057Z,101638.22
2022-09-04T12:59:03.231Z,101642.75
2022-09-04T13:02:18.693Z,101650.00
2022-09-04T13:05:41.945Z,101641.97
2022-09-04T13:09:11.310Z,101646.28
2022-09-04T13:12:25.539Z,101642.06
2022-09-04T13:15:40.728Z,101645.84
2022-09-04T13:19:00.155Z,101643.41
2022-09-04T13:22:19.932Z,101635.66
2022-09-04T13:25:34.327Z,101642.41
2022-09-04T13:28:53.555Z,101649.75
2022-09-04T13:32:30.459Z,101645.44
2022-09-04T13:35:53.573Z,101647.28
2022-09-04T13:39:27.090Z,101648.94
2022-09-04T13:42:59.487Z,101652.31
2022-09-04T13:46:08.058Z,101646.16
2022-09-04T13:49:16.467Z,101653.31
2022-09-04T13:52:27.302Z,101658.31
2022-09-04T13:55:34.884Z,101654.91
2022-09-04T13:58:47.656Z,101658.34
2022-09-04T14:01:55.167Z,101667.72
2022-09-04T14:05:07.364Z,101659.94
2022-09-04T14:08:18.112Z,101658.69
2022-09-04T14:12:01.335Z,101663.63
2022-09-04T14:15:59.869Z,101659.06
2022-09-04T14:19:17.325Z,101658.94
2022-09-04T14:22:41.315Z,101661.88
2022-09-04T14:25:51.083Z,101654.09
2022-09-04T14:29:04.132Z,101661.47
2022-09-04T14:32:19.420Z,101656.00
2022-09-04T14:35:36.554Z,101655.84
2022-09-04T14:39:18.834Z,101664.34
2022-09-04T14:42:42.621Z,101668.09
2022-09-04T14:46:06.594Z,101676.53
2022-09-04T14:49:16.991Z,101670.69
2022-09-04T14:52:25.345Z,101671.41
2022-09-04T14:55:31.329Z,101679.88
2022-09-04T14:58:38.341Z,101676.16
2022-09-04T15:02:05.569Z,101673.63
2022-09-04T15:05:21.859Z,101665.09
2022-09-04T15:08:36.783Z,101663.00
2022-09-04T15:11:43.653Z,101666.56
2022-09-04T15:14:51.245Z,101670.31
2022-09-04T15:18:01.776Z,101663.44
2022-09-04T15:21:12.322Z,101668.88
2022-09-04T15:24:26.770Z,101661.34
2022-09-04T15:27:45.221Z,101661.41
2022-09-04T15:31:05.632Z,101671.63
2022-09-04T15:34:12.551Z,101673.81
2022-09-04T15:37:23.656Z,101662.00
2022-09-04T15:40:34.439Z,101668.03
2022-09-04T15:43:43.842Z,101663.75
2022-09-04T15:47:01.086Z,101667.19
2022-09-04T15:50:18.191Z,101672.44
2022-09-04T15:53:28.607Z,101674.94
2022-09-04T15:56:39.174Z,101669.41
2022-09-04T15:59:53.182Z,101682.63
2022-09-04T16:03:03.182Z,101678.44
2022-09-04T16:06:17.264Z,101672.88
2022-09-04T16:09:25.990Z,101679.72
2022-09-04T16:12:34.482Z,101680.22
2022-09-04T16:15:42.667Z,101683.72
2022-09-04T16:18:58.933Z,101681.63
2022-09-04T16:22:11.559Z,101685.13
2022-09-04T16:25:28.943Z,101683.66
2022-09-04T16:28:40.985Z,101689.00
2022-09-04T16:31:53.878Z,101686.72
2022-09-04T16:35:01.734Z,101686.41
2022-09-04T16:38:14.790Z,101690.06
2022-09-04T16:41:25.590Z,101690.06
2022-09-04T16:44:37.019Z,101700.38
2022-09-04T16:47:47.312Z,101705.88
2022-09-04T16:50:55.814Z,101702.38
2022-09-04T16:54:08.511Z,101716.19
2022-09-04T16:57:17.104Z,101706.88
2022-09-04T17:00:22.336Z,101714.34
2022-09-04T17:03:29.922Z,101720.34
2022-09-04T17:06:42.731Z,101718.34
2022-09-04T17:10:01.677Z,101723.31
2022-09-04T17:13:13.081Z,101726.31
2022-09-04T17:16:21.708Z,101721.97
2022-09-04T17:19:25.962Z,101724.78
2022-09-04T17:28:58.037Z,101726.41
2022-09-04T17:28:58.371Z,101722.53
2022-09-04T17:29:42.900Z,101729.69
2022-09-04T17:38:28.373Z,101731.81
2022-09-04T17:40:41.350Z,101738.34
2022-09-04T17:40:55.440Z,101736.06
2022-09-04T17:43:35.800Z,101740.22
2022-09-04T17:46:44.695Z,101748.41
2022-09-04T17:49:52.144Z,101752.06
2022-09-04T17:52:59.963Z,101747.53
2022-09-04T17:56:09.316Z,101761.19
2022-09-04T17:59:19.415Z,101767.75
2022-09-04T18:02:30.402Z,101773.66
2022-09-04T18:05:51.591Z,101778.75
2022-09-04T18:09:07.766Z,101776.69
2022-09-04T18:12:21.362Z,101780.38
2022-09-04T18:15:34.798Z,101782.91
2022-09-04T18:18:41.748Z,101785.97
2022-09-04T18:22:15.764Z,101784.56
2022-09-04T18:25:17.893Z,101793.06
2022-09-04T18:28:28.051Z,101796.19
2022-09-04T18:37:09.139Z,101796.91
2022-09-04T18:37:19.202Z,101797.25
2022-09-04T18:38:41.793Z,101797.53
2022-09-04T18:47:58.126Z,101804.41
2022-09-04T18:50:38.515Z,101808.72
2022-09-04T18:50:53.392Z,101807.41
2022-09-04T18:52:55.352Z,101813.28
2022-09-04T18:56:03.743Z,101815.63
2022-09-04T18:59:25.618Z,101820.63
2022-09-04T19:02:31.520Z,101823.97
2022-09-04T19:05:44.767Z,101833.31
2022-09-04T19:08:52.747Z,101827.06
2022-09-04T19:12:03.948Z,101833.78
2022-09-04T19:15:36.632Z,101831.25
2022-09-04T19:18:50.014Z,101831.41
2022-09-04T19:21:58.726Z,101829.34
2022-09-04T19:25:07.504Z,101827.94
2022-09-04T19:28:16.408Z,101832.41
2022-09-04T19:31:29.956Z,101825.34
2022-09-04T19:34:41.303Z,101832.13
2022-09-04T19:40:27.411Z,101831.31
2022-09-04T19:46:07.830Z,101834.94
2022-09-04T19:46:13.769Z,101830.50
2022-09-04T19:48:32.113Z,101836.88
2022-09-04T19:53:19.591Z,101832.72
2022-09-04T19:55:24.671Z,101827.69
2022-09-04T19:58:38.822Z,101827.69
2022-09-04T20:01:49.585Z,101827.94
2022-09-04T20:04:56.959Z,101835.19
2022-09-04T20:08:08.494Z,101832.94
2022-09-04T20:11:35.326Z,101844.31
2022-09-04T20:14:45.171Z,101835.13
2022-09-04T20:18:04.505Z,101834.28
2022-09-04T20:21:15.539Z,101837.34
2022-09-04T20:24:23.016Z,101842.47
2022-09-04T20:27:34.020Z,101836.03
2022-09-04T20:30:43.857Z,101838.69
2022-09-04T20:33:51.795Z,101842.69
2022-09-04T20:37:15.860Z,101844.50
2022-09-04T20:40:27.457Z,101848.66
2022-09-04T20:43:45.679Z,101851.44
2022-09-04T20:52:40.654Z,101850.50
2022-09-04T20:52:53.683Z,101849.81
2022-09-04T20:54:14.991Z,101856.38
2022-09-04T21:03:14.935Z,101861.88
2022-09-04T21:03:24.231Z,101863.00
2022-09-04T21:04:43.409Z,101868.66
2022-09-04T21:07:56.073Z,101872.50
2022-09-04T21:11:03.341Z,101873.56
2022-09-04T21:14:28.587Z,101882.34
2022-09-04T21:18:21.199Z,101887.50
2022-09-04T21:21:46.257Z,101883.28
2022-09-04T21:25:18.838Z,101888.88
2022-09-04T21:28:50.811Z,101897.47
2022-09-04T21:32:29.397Z,101892.31
2022-09-04T21:35:36.919Z,101895.28
2022-09-04T21:39:28.137Z,101898.16
2022-09-04T21:43:05.387Z,101898.53
2022-09-04T21:46:31.066Z,101895.78
2022-09-04T21:50:39.153Z,101892.09
2022-09-04T21:54:04.657Z,101896.88
2022-09-04T22:02:28.297Z,101896.41
2022-09-04T22:02:40.790Z,101901.94
2022-09-04T22:05:09.664Z,101897.84
2022-09-04T22:12:44.093Z,101906.59
2022-09-04T22:13:41.680Z,101905.66
2022-09-04T22:15:39.075Z,101914.53
2022-09-04T22:19:02.124Z,101910.72
2022-09-04T22:22:54.604Z,101920.28
2022-09-04T22:26:23.797Z,101911.78
2022-09-04T22:29:49.925Z,101915.66
2022-09-04T22:34:14.306Z,101914.34
2022-09-04T22:37:49.150Z,101914.09
2022-09-04T22:41:08.732Z,101921.03
2022-09-04T22:44:29.436Z,101915.53
2022-09-04T22:47:49.963Z,101918.88
2022-09-04T22:51:08.140Z,101922.34
2022-09-04T22:54:30.730Z,101917.19
2022-09-04T22:57:52.398Z,101919.81
2022-09-04T23:01:17.322Z,101920.31
2022-09-04T23:04:58.165Z,101928.19
2022-09-04T23:13:44.079Z,101924.78
2022-09-04T23:13:56.229Z,101924.34
2022-09-04T23:15:45.206Z,101924.94
2022-09-04T23:26:33.725Z,101931.97
2022-09-04T23:26:38.817Z,101926.47
2022-09-04T23:27:00.865Z,101927.00
2022-09-04T23:30:26.635Z,101927.97
2022-09-04T23:33:53.910Z,101932.66
2022-09-04T23:37:24.755Z,101929.53
2022-09-04T23:40:37.214Z,101932.66
2022-09-04T23:44:16.645Z,101925.72
2022-09-04T23:47:59.142Z,101931.81
2022-09-04T23:51:11.287Z,101927.38
2022-09-04T23:54:56.766Z,101930.97
2022-09-04T23:58:29.115Z,101923.53
